Portada
METAR-TAF:

METAR-TAF

Aeroports :

Land's End, Anglaterra

latitud: 50-06-10N, longitud: 005-40-14W, altitud: 122 m

Observació

L'informe es va fer fa 5 hores i 47 minuts, a les 17:20 UTC
Vent 19 kt del Oest
Temperatura 10°C
Humitat 100%
Pressió 1010 hPa
Visibilitat: 7000 m
Escasses núvols a una alçada de 500 ft

METAR: EGHC 061720Z 28019KT 7000 FEW005 10/10 Q1010

Hora: 23:07 (23:07 UTC)

Pronòstic

L'informe es va fer fa 9 hores i 10 minuts, a les 13:57 UTC
Pronòstic vàlid del 06 a les 15 UTC al 06 a les 18 UTC
Vent 20 kt del Oest
Visibilitat 10 km o més
Escasses núvols a una alçada de 1000 ft
Núvols disperses a una alçada de 2500 ft
Temporalment
l' 06 a les 15 UTC al 06 a les 18 UTC
Vent 25 kt del Oest amb ràfegues de 35 kt
Probabilitat 30% :
Temporalment
l' 06 a les 15 UTC al 06 a les 18 UTC
Visibilitat: 8000 m
Cel ennuvolat a una alçada de 900 ft

TAF: EGHC 061357Z 0615/0618 26020KT 9999 FEW010 SCT025 TEMPO 0615/0618 28025G35KT PROB30 TEMPO 0615/0618 8000 BKN009

Observacions i pronòstics meteorològics de més de 4000 aeroports (METAR i TAF).

Les estacions disponibles són els punts grocs i vermells al mapa.

Posi el ratolí al punt desitjat per veure el nom de l'estació.

Feu clic per veure les observacions i els pronòstics meteorològics.

Per canviar el mapa: feu clic els botons verds amb una creu de color negre per apropar; al botó verd amb un guió per allunyar la imatge; o en les fletxes verdes per a mapes adjacents.


METAR-TAF: